Time;durP1;ratioP1;P1;durP2;ratioP2;P2;SDS_P1;SDS_P2;PMS_P1;PMS_P2;Temp;Humidity;BMP_temperature;BMP_pressure;BME280_temperature;BME280_humidity;BME280_pressure;Samples;Min_cycle;Max_cycle;Signal;HPM_P1;HPM_P2
2021/06/05 04:12:03;;;;;;;0.20;0.20;;;20.70;99.90;;;;;;5221664;23;20625;-78
2021/06/05 04:14:31;;;;;;;0.20;0.20;;;20.70;99.90;;;;;;4978631;29;20198;-77
2021/06/05 04:16:58;;;;;;;0.20;0.20;;;20.70;99.90;;;;;;4979066;28;20217;-77
2021/06/05 04:19:26;;;;;;;0.20;0.20;;;20.80;99.90;;;;;;4978738;29;20205;-77
2021/06/05 04:21:56;;;;;;;0.20;0.20;;;20.90;99.90;;;;;;4980078;29;20237;-77
2021/06/05 04:24:24;;;;;;;0.20;0.20;;;21.00;99.90;;;;;;4969512;29;20620;-79
2021/06/05 04:26:52;;;;;;;0.20;0.20;;;21.00;99.90;;;;;;4961011;29;20740;-79
2021/06/05 04:29:21;;;;;;;0.20;0.20;;;21.20;99.90;;;;;;4960807;29;20585;-81
2021/06/05 04:31:49;;;;;;;0.20;0.20;;;21.30;99.90;;;;;;4950016;28;20225;-80
2021/06/05 04:34:16;;;;;;;0.20;0.20;;;21.40;99.90;;;;;;4961000;29;20324;-82
2021/06/05 04:36:43;;;;;;;0.10;0.10;;;21.50;99.90;;;;;;4961906;29;20213;-80
2021/06/05 04:39:11;;;;;;;0.20;0.20;;;21.60;99.90;;;;;;4960397;29;20574;-79
2021/06/05 04:41:38;;;;;;;0.20;0.20;;;21.70;99.90;;;;;;4959656;29;20641;-81
2021/06/05 04:44:06;;;;;;;0.20;0.20;;;21.70;99.90;;;;;;4959223;29;20252;-80
2021/06/05 04:46:35;;;;;;;0.20;0.20;;;21.80;99.90;;;;;;4962591;29;20205;-81
2021/06/05 04:49:04;;;;;;;0.20;0.20;;;21.90;99.90;;;;;;4959403;29;20644;-81
2021/06/05 04:51:31;;;;;;;0.20;0.20;;;21.90;99.90;;;;;;4960072;29;20253;-80
2021/06/05 04:54:00;;;;;;;0.20;0.20;;;21.90;99.90;;;;;;4963238;29;20197;-81
2021/06/05 04:56:34;;;;;;;0.20;0.20;;;21.90;99.90;;;;;;4959816;29;20675;-78
2021/06/05 04:59:01;;;;;;;0.20;0.20;;;22.10;99.90;;;;;;4963079;29;20280;-80
2021/06/05 05:01:29;;;;;;;0.20;0.20;;;22.10;99.90;;;;;;4963649;29;20229;-80
2021/06/05 05:03:58;;;;;;;0.20;0.20;;;22.10;99.90;;;;;;4962791;29;20229;-78
2021/06/05 05:06:25;;;;;;;0.20;0.20;;;22.00;99.90;;;;;;4963481;29;20213;-78
2021/06/05 05:08:53;;;;;;;0.20;0.20;;;21.90;99.90;;;;;;4957365;29;20206;-76
2021/06/05 05:11:22;;;;;;;0.20;0.20;;;22.00;99.90;;;;;;4958332;29;20717;-77
2021/06/05 05:13:49;;;;;;;0.20;0.20;;;22.10;99.90;;;;;;4961017;29;20205;-78
2021/06/05 05:16:18;;;;;;;0.20;0.20;;;22.10;99.90;;;;;;4963304;29;20205;-78
2021/06/05 05:18:47;;;;;;;0.20;0.20;;;22.00;99.90;;;;;;4966945;29;20574;-80
2021/06/05 05:21:17;;;;;;;0.20;0.20;;;22.30;99.90;;;;;;4965752;29;20229;-79
2021/06/05 05:23:45;;;;;;;0.20;0.20;;;22.30;99.90;;;;;;4965012;29;20225;-80
2021/06/05 05:26:12;;;;;;;0.20;0.20;;;22.50;99.90;;;;;;4964627;29;20236;-79
2021/06/05 05:28:40;;;;;;;0.20;0.20;;;22.30;99.90;;;;;;4963641;29;20297;-78
2021/06/05 05:31:13;;;;;;;0.10;0.10;;;22.30;99.90;;;;;;4963031;29;20230;-77
2021/06/05 05:33:41;;;;;;;0.10;0.10;;;22.30;99.90;;;;;;4961702;29;20201;-78
2021/06/05 05:36:12;;;;;;;0.20;0.20;;;22.50;99.90;;;;;;4964318;29;20208;-78
2021/06/05 05:38:41;;;;;;;0.20;0.20;;;22.50;99.90;;;;;;4965455;29;20209;-78
2021/06/05 05:41:12;;;;;;;0.20;0.20;;;22.70;99.90;;;;;;4964619;29;20229;-78
2021/06/05 05:43:39;;;;;;;0.20;0.20;;;22.90;99.90;;;;;;4965880;29;20225;-79
2021/06/05 05:46:08;;;;;;;0.20;0.20;;;22.80;99.90;;;;;;4965984;29;20210;-78
2021/06/05 05:48:37;;;;;;;0.20;0.20;;;22.80;99.90;;;;;;4966802;29;20291;-80
2021/06/05 05:51:06;;;;;;;0.20;0.20;;;22.80;99.90;;;;;;4962956;29;20229;-82
2021/06/05 05:53:36;;;;;;;0.20;0.20;;;22.80;99.90;;;;;;4969210;29;20213;-78
2021/06/05 05:56:06;;;;;;;0.20;0.20;;;22.80;99.90;;;;;;4972208;29;20201;-80
2021/06/05 05:58:39;;;;;;;0.20;0.20;;;22.70;99.90;;;;;;4967116;29;20212;-77
2021/06/05 06:01:10;;;;;;;0.10;0.10;;;22.80;99.90;;;;;;4968244;29;20231;-82
2021/06/05 06:03:41;;;;;;;0.20;0.20;;;22.90;99.90;;;;;;4963569;29;20307;-78
2021/06/05 06:06:09;;;;;;;0.20;0.20;;;22.70;99.90;;;;;;4955776;28;20221;-79
2021/06/05 06:08:36;;;;;;;0.10;0.10;;;22.60;99.90;;;;;;4956811;29;20690;-77
2021/06/05 06:11:06;;;;;;;0.20;0.20;;;22.70;99.90;;;;;;4959225;29;20717;-78
2021/06/05 06:13:33;;;;;;;0.20;0.20;;;23.20;99.90;;;;;;4957878;29;20202;-76
2021/06/05 06:16:03;;;;;;;0.10;0.10;;;22.90;99.90;;;;;;4956766;29;20213;-77
2021/06/05 06:18:30;;;;;;;0.20;0.20;;;22.80;99.90;;;;;;4956839;29;20646;-78
2021/06/05 06:20:58;;;;;;;0.10;0.10;;;22.60;99.90;;;;;;4957917;29;20224;-78
2021/06/05 06:23:27;;;;;;;0.10;0.10;;;22.60;99.90;;;;;;4957381;29;20276;-82
2021/06/05 06:25:56;;;;;;;0.20;0.20;;;22.70;99.90;;;;;;4957926;29;20240;-81
2021/06/05 06:28:28;;;;;;;0.20;0.20;;;22.80;99.90;;;;;;4958518;29;20201;-78
2021/06/05 06:30:57;;;;;;;0.20;0.20;;;22.80;99.90;;;;;;4957016;29;21462;-77
2021/06/05 06:33:25;;;;;;;0.20;0.20;;;22.70;99.90;;;;;;4955311;29;20232;-77
2021/06/05 06:35:54;;;;;;;0.20;0.20;;;22.70;99.90;;;;;;4954662;29;20205;-77
2021/06/05 06:38:26;;;;;;;0.20;0.20;;;22.70;99.90;;;;;;4954674;28;20264;-77
2021/06/05 06:40:54;;;;;;;0.20;0.20;;;22.70;99.90;;;;;;4956434;29;20221;-78
2021/06/05 06:43:26;;;;;;;0.17;0.17;;;22.70;99.90;;;;;;4958081;29;20223;-80
2021/06/05 06:45:54;;;;;;;0.20;0.20;;;23.10;99.90;;;;;;4957738;29;20602;-79
2021/06/05 06:48:27;;;;;;;0.10;0.10;;;22.70;99.90;;;;;;4979295;28;20185;-76
2021/06/05 06:50:55;;;;;;;0.20;0.20;;;22.90;99.90;;;;;;4979134;28;20214;-75
2021/06/05 06:53:23;;;;;;;0.10;0.10;;;22.90;99.90;;;;;;4979229;28;20229;-76
2021/06/05 06:55:51;;;;;;;0.20;0.20;;;23.00;99.90;;;;;;4962724;28;20510;-79
2021/06/05 06:58:18;;;;;;;0.20;0.20;;;23.10;99.90;;;;;;4960834;29;20258;-81
2021/06/05 07:00:48;;;;;;;0.10;0.10;;;23.30;99.90;;;;;;4957941;29;20225;-82
2021/06/05 07:03:16;;;;;;;0.20;0.20;;;23.40;99.90;;;;;;4958560;29;20209;-82
2021/06/05 07:05:44;;;;;;;0.10;0.10;;;23.50;99.90;;;;;;4959504;29;20264;-82
2021/06/05 07:08:17;;;;;;;0.20;0.20;;;23.70;99.90;;;;;;4960372;29;20201;-82
2021/06/05 07:10:46;;;;;;;0.10;0.10;;;24.60;99.90;;;;;;4958692;29;20249;-78
2021/06/05 07:13:14;;;;;;;0.20;0.20;;;24.00;99.60;;;;;;4957457;29;20205;-78
2021/06/05 07:15:42;;;;;;;0.10;0.10;;;24.00;98.50;;;;;;4959477;29;20729;-80
2021/06/05 07:18:13;;;;;;;0.10;0.10;;;24.10;98.40;;;;;;4958528;29;20670;-77
2021/06/05 07:20:41;;;;;;;0.20;0.20;;;24.20;97.80;;;;;;4960066;29;20221;-80
2021/06/05 07:23:08;;;;;;;0.20;0.20;;;24.10;98.00;;;;;;4958500;29;20272;-78
2021/06/05 07:25:36;;;;;;;0.10;0.10;;;24.10;98.30;;;;;;4958686;29;20201;-80
2021/06/05 07:28:13;;;;;;;0.10;0.10;;;24.30;97.60;;;;;;4958944;29;20690;-77
2021/06/05 07:30:41;;;;;;;0.10;0.10;;;24.30;97.00;;;;;;4958247;29;20225;-80
2021/06/05 07:33:10;;;;;;;0.10;0.10;;;24.10;97.50;;;;;;4964995;29;20571;-79
2021/06/05 07:35:37;;;;;;;0.10;0.10;;;24.10;98.10;;;;;;4964488;29;20209;-80
2021/06/05 07:38:05;;;;;;;0.10;0.10;;;24.30;97.70;;;;;;4961463;29;20238;-79
2021/06/05 07:40:33;;;;;;;0.20;0.20;;;24.30;97.40;;;;;;4958298;29;20229;-77
2021/06/05 07:43:01;;;;;;;0.10;0.10;;;24.50;98.40;;;;;;4956049;29;20772;-77
2021/06/05 07:45:29;;;;;;;0.20;0.20;;;24.70;97.50;;;;;;4955711;29;20209;-76
2021/06/05 07:47:57;;;;;;;0.10;0.10;;;24.60;96.60;;;;;;4953901;29;20221;-77
2021/06/05 07:50:26;;;;;;;0.10;0.10;;;24.80;99.90;;;;;;4954963;28;20213;-76
2021/06/05 07:52:54;;;;;;;0.20;0.20;;;24.70;97.50;;;;;;4957604;29;20260;-77
2021/06/05 07:55:22;;;;;;;0.10;0.10;;;24.80;97.10;;;;;;4957141;29;20642;-76
2021/06/05 07:57:50;;;;;;;0.10;0.10;;;25.00;96.60;;;;;;4957231;29;20236;-76
2021/06/05 08:00:20;;;;;;;0.10;0.10;;;25.20;99.90;;;;;;4957093;29;20216;-76
2021/06/05 08:02:49;;;;;;;0.10;0.10;;;25.20;96.10;;;;;;4957482;29;20225;-78
2021/06/05 08:05:19;;;;;;;0.10;0.10;;;25.50;95.20;;;;;;4960738;29;20201;-75
2021/06/05 08:07:48;;;;;;;0.10;0.10;;;25.50;95.40;;;;;;4960126;29;20209;-77
2021/06/05 08:10:16;;;;;;;0.10;0.10;;;25.70;99.90;;;;;;4958963;29;20276;-78
2021/06/05 08:12:44;;;;;;;0.10;0.10;;;25.60;95.20;;;;;;4958011;29;20209;-78
2021/06/05 08:15:16;;;;;;;0.10;0.10;;;25.80;95.40;;;;;;4959102;29;20205;-78
2021/06/05 08:17:43;;;;;;;0.20;0.20;;;26.10;95.60;;;;;;4959323;29;20217;-79
2021/06/05 08:20:15;;;;;;;0.20;0.20;;;26.20;94.90;;;;;;4959505;29;20265;-77
2021/06/05 08:22:43;;;;;;;0.10;0.10;;;26.10;93.80;;;;;;4958930;29;20233;-79
2021/06/05 08:25:13;;;;;;;0.10;0.10;;;25.90;92.70;;;;;;4959106;29;20202;-77
2021/06/05 08:27:42;;;;;;;0.10;0.10;;;26.00;93.50;;;;;;4961003;29;20268;-80
2021/06/05 08:30:15;;;;;;;0.10;0.10;;;26.20;93.60;;;;;;4957935;29;20205;-77
2021/06/05 08:32:43;;;;;;;0.10;0.10;;;26.30;93.00;;;;;;4957419;29;20205;-78
2021/06/05 08:35:10;;;;;;;0.10;0.10;;;26.20;92.50;;;;;;4956597;29;20240;-76
2021/06/05 08:37:38;;;;;;;0.10;0.10;;;26.10;92.20;;;;;;4956447;29;20907;-77
2021/06/05 08:40:07;;;;;;;0.10;0.10;;;26.10;92.70;;;;;;4956710;29;20567;-76
2021/06/05 08:42:47;;;;;;;0.10;0.10;;;25.90;92.00;;;;;;4955847;29;20568;-75
2021/06/05 08:45:16;;;;;;;0.10;0.10;;;25.80;92.50;;;;;;4956365;29;20237;-76
2021/06/05 08:47:44;;;;;;;0.20;0.20;;;25.70;93.40;;;;;;4956204;29;20221;-76
2021/06/05 08:50:15;;;;;;;0.10;0.10;;;25.60;94.60;;;;;;4956219;29;20213;-76
2021/06/05 08:52:49;;;;;;;0.10;0.10;;;25.40;96.80;;;;;;4956730;29;20271;-76
2021/06/05 08:55:23;;;;;;;0.10;0.10;;;25.00;97.20;;;;;;4958772;29;20209;-76
2021/06/05 08:57:56;;;;;;;0.20;0.20;;;24.70;96.10;;;;;;4958050;29;20213;-76
2021/06/05 09:00:29;;;;;;;0.20;0.20;;;24.60;99.90;;;;;;4956123;29;20236;-76
2021/06/05 09:02:59;;;;;;;0.20;0.20;;;24.70;98.70;;;;;;4955077;28;20205;-76
2021/06/05 09:05:31;;;;;;;0.10;0.10;;;24.80;99.20;;;;;;4955629;29;20568;-76
2021/06/05 09:07:59;;;;;;;0.10;0.10;;;24.90;98.70;;;;;;4955901;29;20209;-76
2021/06/05 09:10:29;;;;;;;0.10;0.10;;;25.00;99.90;;;;;;4955635;29;20206;-76
2021/06/05 09:12:58;;;;;;;0.10;0.10;;;24.90;97.90;;;;;;4955674;29;20206;-74
2021/06/05 09:15:27;;;;;;;0.10;0.10;;;25.00;97.60;;;;;;4955338;29;20276;-76
2021/06/05 09:17:59;;;;;;;0.10;0.10;;;25.00;97.30;;;;;;4955817;29;20256;-76
2021/06/05 09:20:34;;;;;;;0.10;0.10;;;25.10;99.90;;;;;;4955631;29;20260;-77
2021/06/05 09:23:21;;;;;;;0.20;0.20;;;25.20;98.50;;;;;;4955802;29;20768;-79
2021/06/05 09:25:49;;;;;;;0.10;0.10;;;25.20;97.50;;;;;;4960733;28;20232;-79
2021/06/05 09:28:23;;;;;;;0.10;0.10;;;25.20;96.10;;;;;;4967932;28;20212;-77
2021/06/05 09:30:54;;;;;;;0.10;0.10;;;25.50;96.80;;;;;;4975322;28;20244;-79
2021/06/05 09:33:30;;;;;;;0.10;0.10;;;25.40;96.00;;;;;;4974302;28;20593;-77
2021/06/05 09:36:18;;;;;;;0.20;0.20;;;25.70;96.70;;;;;;4975167;28;20267;-78
2021/06/05 09:38:47;;;;;;;0.10;0.10;;;25.90;96.70;;;;;;4974511;28;20193;-79
2021/06/05 09:41:21;;;;;;;0.10;0.10;;;26.00;96.60;;;;;;4975650;28;20252;-76
2021/06/05 09:43:51;;;;;;;0.10;0.10;;;26.30;95.80;;;;;;4974208;28;20267;-78
2021/06/05 09:46:26;;;;;;;0.10;0.10;;;26.50;95.20;;;;;;4973102;28;20204;-77
2021/06/05 09:49:10;;;;;;;0.10;0.10;;;26.70;95.60;;;;;;4972264;28;20653;-76
2021/06/05 09:51:41;;;;;;;0.10;0.10;;;27.00;94.60;;;;;;4973099;28;20236;-78
2021/06/05 09:54:12;;;;;;;0.10;0.10;;;27.10;93.50;;;;;;4975086;28;20201;-77
2021/06/05 09:56:42;;;;;;;0.10;0.10;;;27.40;92.60;;;;;;4972370;28;20625;-72
2021/06/05 09:59:23;;;;;;;0.10;0.10;;;27.50;93.10;;;;;;4973717;28;20200;-74
2021/06/05 10:02:04;;;;;;;0.10;0.10;;;27.60;91.60;;;;;;4973803;28;20224;-76
2021/06/05 10:04:33;;;;;;;0.10;0.10;;;27.50;92.50;;;;;;4954040;28;20248;-75
2021/06/05 10:07:02;;;;;;;0.10;0.10;;;27.50;91.20;;;;;;4945053;29;20209;-76
2021/06/05 10:09:36;;;;;;;0.10;0.10;;;27.50;90.80;;;;;;4944888;29;20252;-76
2021/06/05 10:12:06;;;;;;;0.10;0.10;;;27.30;92.40;;;;;;4950927;29;20225;-77
2021/06/05 10:14:50;;;;;;;0.10;0.10;;;27.20;91.40;;;;;;4953090;28;20205;-77
2021/06/05 10:17:24;;;;;;;0.10;0.10;;;27.00;92.20;;;;;;4938744;29;20206;-77
2021/06/05 10:19:58;;;;;;;0.10;0.10;;;27.10;91.40;;;;;;4948708;29;20201;-78
2021/06/05 10:22:27;;;;;;;0.10;0.10;;;27.10;91.40;;;;;;4954972;29;20276;-76
2021/06/05 10:24:59;;;;;;;0.10;0.10;;;27.00;91.20;;;;;;4953055;29;20279;-72
2021/06/05 10:27:30;;;;;;;0.10;0.10;;;26.80;91.90;;;;;;4954155;29;20248;-73
2021/06/05 10:30:04;;;;;;;0.10;0.10;;;27.10;91.40;;;;;;4954294;29;20213;-74
2021/06/05 10:32:40;;;;;;;0.10;0.10;;;26.70;92.10;;;;;;4954183;29;20225;-73
2021/06/05 10:35:12;;;;;;;0.10;0.10;;;26.60;91.40;;;;;;4954231;29;20201;-73
2021/06/05 10:37:41;;;;;;;0.10;0.10;;;26.60;92.00;;;;;;4954310;29;20201;-72
2021/06/05 10:40:16;;;;;;;0.10;0.10;;;26.40;91.40;;;;;;4954019;29;20730;-75
2021/06/05 10:42:46;;;;;;;0.10;0.10;;;26.30;91.80;;;;;;4951414;29;20205;-73
2021/06/05 10:45:25;;;;;;;0.10;0.10;;;26.30;92.70;;;;;;4944058;29;20218;-75
2021/06/05 10:47:57;;;;;;;0.10;0.10;;;26.10;92.30;;;;;;4942618;29;20553;-74
2021/06/05 10:50:34;;;;;;;0.10;0.10;;;25.80;99.90;;;;;;4943357;29;20664;-73
2021/06/05 10:53:09;;;;;;;0.10;0.10;;;25.80;93.10;;;;;;4946260;29;20292;-78
2021/06/05 10:55:43;;;;;;;0.20;0.20;;;26.00;93.60;;;;;;4946435;29;20249;-79
2021/06/05 10:58:20;;;;;;;0.20;0.20;;;26.00;93.40;;;;;;4947440;29;20205;-78
2021/06/05 11:00:52;;;;;;;0.10;0.10;;;26.00;93.00;;;;;;4947269;29;20263;-81
2021/06/05 11:03:56;;;;;;;0.10;0.10;;;26.00;93.00;;;;;;4945019;29;20202;-77
2021/06/05 11:06:27;;;;;;;0.10;0.10;;;26.20;93.10;;;;;;4943467;29;20205;-77
2021/06/05 11:08:58;;;;;;;0.10;0.10;;;26.20;92.50;;;;;;4946167;29;20333;-77
2021/06/05 11:11:43;;;;;;;0.10;0.10;;;26.10;93.20;;;;;;4947247;29;20371;-76
2021/06/05 11:14:50;;;;;;;0.10;0.10;;;26.40;91.90;;;;;;4945926;29;20954;-75
2021/06/05 11:17:36;;;;;;;0.10;0.10;;;26.40;92.00;;;;;;4944272;29;20204;-75
2021/06/05 11:20:38;;;;;;;0.10;0.10;;;26.40;90.80;;;;;;4945040;29;20568;-71
2021/06/05 11:23:30;;;;;;;0.10;0.10;;;26.80;92.00;;;;;;4942766;29;20201;-72
2021/06/05 11:26:26;;;;;;;0.10;0.10;;;26.80;91.10;;;;;;4946634;29;20201;-72
2021/06/05 11:28:53;;;;;;;0.10;0.10;;;27.00;90.90;;;;;;4948257;29;20198;-75
2021/06/05 11:31:44;;;;;;;0.10;0.10;;;27.00;90.90;;;;;;4946797;29;20214;-74
2021/06/05 11:34:53;;;;;;;0.10;0.10;;;26.80;88.70;;;;;;4951393;29;20201;-78
2021/06/05 11:37:49;;;;;;;0.10;0.10;;;27.00;89.90;;;;;;4948386;29;20273;-78
2021/06/05 11:40:50;;;;;;;0.10;0.10;;;27.40;97.50;;;;;;4952047;29;20276;-76
2021/06/05 11:43:35;;;;;;;0.10;0.10;;;27.50;90.50;;;;;;4947887;29;20372;-75
2021/06/05 11:46:05;;;;;;;0.10;0.10;;;27.60;87.80;;;;;;4945966;29;20670;-76
2021/06/05 11:49:00;;;;;;;0.10;0.10;;;27.60;88.50;;;;;;4950210;29;20202;-77
2021/06/05 11:51:34;;;;;;;0.10;0.10;;;27.40;85.90;;;;;;4952232;29;20237;-76
2021/06/05 11:54:18;;;;;;;0.10;0.10;;;27.50;87.50;;;;;;4953154;29;20228;-78
2021/06/05 11:56:49;;;;;;;0.10;0.10;;;27.80;85.00;;;;;;4949939;29;20261;-79
2021/06/05 11:59:33;;;;;;;0.10;0.10;;;28.20;85.40;;;;;;4949471;29;20737;-78
2021/06/05 12:02:10;;;;;;;0.10;0.10;;;28.30;86.10;;;;;;4949790;29;20225;-79
2021/06/05 12:04:44;;;;;;;0.10;0.10;;;28.20;85.20;;;;;;4951240;29;20218;-79
2021/06/05 12:07:28;;;;;;;0.10;0.10;;;28.30;85.40;;;;;;4950091;29;20240;-78
2021/06/05 12:09:58;;;;;;;0.10;0.10;;;27.90;84.00;;;;;;4950075;29;20253;-78
2021/06/05 12:12:29;;;;;;;0.10;0.10;;;28.00;85.20;;;;;;4948989;29;20230;-77
2021/06/05 12:15:07;;;;;;;0.10;0.10;;;28.20;83.70;;;;;;4940802;29;20228;-79
2021/06/05 12:17:38;;;;;;;0.10;0.10;;;28.10;83.40;;;;;;4940973;29;20210;-79
2021/06/05 12:20:10;;;;;;;0.10;0.10;;;28.20;82.60;;;;;;4940171;29;20214;-76
2021/06/05 12:22:39;;;;;;;0.10;0.10;;;27.70;81.80;;;;;;4940355;29;20642;-79
2021/06/05 12:25:29;;;;;;;0.10;0.10;;;27.90;82.60;;;;;;4940988;29;20288;-79
2021/06/05 12:28:10;;;;;;;0.10;0.10;;;28.20;83.50;;;;;;4940786;29;20205;-79
2021/06/05 12:30:41;;;;;;;0.10;0.10;;;28.10;80.50;;;;;;4940833;29;20226;-79
2021/06/05 12:33:10;;;;;;;0.10;0.10;;;28.30;82.50;;;;;;4941055;29;20210;-79
2021/06/05 12:35:41;;;;;;;0.10;0.10;;;28.90;81.70;;;;;;4938897;29;20202;-77
2021/06/05 12:38:12;;;;;;;0.10;0.10;;;29.70;78.50;;;;;;4937466;29;20277;-77
2021/06/05 12:40:45;;;;;;;0.10;0.10;;;30.30;76.20;;;;;;4938754;29;20249;-78
2021/06/05 12:43:17;;;;;;;0.10;0.10;;;30.60;76.10;;;;;;4938439;29;20206;-76
2021/06/05 12:45:45;;;;;;;0.10;0.10;;;30.30;74.00;;;;;;4939601;29;20290;-77
2021/06/05 12:48:16;;;;;;;0.10;0.10;;;30.10;74.30;;;;;;4940502;29;20265;-78
2021/06/05 12:50:46;;;;;;;0.10;0.10;;;29.40;75.40;;;;;;4940875;29;20229;-77
2021/06/05 12:53:19;;;;;;;0.10;0.10;;;29.20;75.80;;;;;;4939716;29;20229;-77
2021/06/05 12:55:49;;;;;;;0.10;0.10;;;28.70;75.90;;;;;;4938590;29;20596;-77
2021/06/05 12:58:32;;;;;;;0.10;0.10;;;28.30;77.70;;;;;;4953260;29;20209;-77
2021/06/05 13:01:00;;;;;;;0.10;0.10;;;28.20;77.50;;;;;;4957313;29;20300;-77
2021/06/05 13:03:44;;;;;;;0.10;0.10;;;28.20;77.40;;;;;;4957579;29;20205;-76
2021/06/05 13:06:17;;;;;;;0.10;0.10;;;28.30;77.90;;;;;;4955093;28;20276;-77
2021/06/05 13:08:47;;;;;;;0.10;0.10;;;28.50;78.30;;;;;;4956947;29;20209;-77
2021/06/05 13:11:39;;;;;;;0.10;0.10;;;28.30;78.20;;;;;;4956872;29;20269;-77
2021/06/05 13:14:19;;;;;;;0.10;0.10;;;28.50;77.30;;;;;;4956809;29;20197;-77
2021/06/05 13:16:47;;;;;;;0.10;0.10;;;28.50;77.90;;;;;;4956893;29;20209;-77
2021/06/05 13:19:24;;;;;;;0.10;0.10;;;28.70;80.20;;;;;;4957163;29;20233;-76
2021/06/05 13:22:07;;;;;;;0.10;0.10;;;28.50;76.60;;;;;;4955506;29;20284;-75
2021/06/05 13:24:35;;;;;;;0.10;0.10;;;28.30;77.60;;;;;;4955325;29;20225;-77
2021/06/05 13:27:16;;;;;;;0.10;0.10;;;28.20;80.00;;;;;;4955103;29;20210;-76
2021/06/05 13:29:47;;;;;;;0.10;0.10;;;28.00;81.00;;;;;;4955616;29;20229;-76
2021/06/05 13:32:30;;;;;;;0.10;0.10;;;28.00;82.70;;;;;;4955450;29;20811;-76
2021/06/05 13:35:04;;;;;;;0.10;0.10;;;27.90;82.10;;;;;;4956023;28;20270;-76
2021/06/05 13:37:34;;;;;;;0.10;0.10;;;27.80;82.40;;;;;;4956502;29;20670;-76
2021/06/05 13:40:06;;;;;;;0.10;0.10;;;27.50;82.60;;;;;;4956651;29;20213;-76
2021/06/05 13:42:36;;;;;;;0.10;0.10;;;27.50;85.60;;;;;;4956639;29;20249;-77
2021/06/05 13:45:08;;;;;;;0.10;0.10;;;27.30;83.10;;;;;;4956468;29;20570;-76
2021/06/05 13:47:35;;;;;;;0.10;0.10;;;27.40;83.70;;;;;;4956212;28;20213;-77
2021/06/05 13:50:04;;;;;;;0.10;0.10;;;27.60;83.20;;;;;;4956375;29;20622;-77
2021/06/05 13:52:33;;;;;;;0.10;0.10;;;27.80;81.40;;;;;;4956655;29;20295;-76
2021/06/05 13:55:05;;;;;;;0.10;0.10;;;28.10;80.80;;;;;;4956567;29;20273;-77
2021/06/05 13:57:32;;;;;;;0.10;0.10;;;28.30;80.90;;;;;;4956768;29;20260;-76
2021/06/05 14:00:00;;;;;;;0.10;0.10;;;28.70;78.70;;;;;;4956844;29;20209;-75
2021/06/05 14:02:29;;;;;;;0.10;0.10;;;28.80;77.50;;;;;;4955893;29;20225;-77
2021/06/05 14:04:56;;;;;;;0.10;0.10;;;29.00;76.50;;;;;;4956896;29;20279;-77
2021/06/05 14:07:24;;;;;;;0.10;0.10;;;29.30;75.60;;;;;;4956161;29;20252;-78
2021/06/05 14:09:53;;;;;;;0.10;0.10;;;29.60;74.50;;;;;;4954506;29;20233;-75
2021/06/05 14:12:24;;;;;;;0.10;0.10;;;29.80;74.60;;;;;;4954436;29;20236;-76
2021/06/05 14:14:52;;;;;;;0.10;0.10;;;29.90;74.00;;;;;;4954699;29;20276;-76
2021/06/05 14:17:20;;;;;;;0.10;0.10;;;29.80;72.50;;;;;;4954813;29;20674;-76
2021/06/05 14:19:49;;;;;;;0.10;0.10;;;29.80;73.50;;;;;;4955152;29;20209;-74
2021/06/05 14:22:18;;;;;;;0.10;0.10;;;29.70;73.90;;;;;;4955757;29;20221;-78
2021/06/05 14:24:46;;;;;;;0.10;0.10;;;29.60;75.50;;;;;;4956080;29;20205;-77
2021/06/05 14:27:14;;;;;;;0.10;0.10;;;29.40;74.90;;;;;;4955979;29;20236;-78
2021/06/05 14:29:42;;;;;;;0.10;0.10;;;29.30;75.30;;;;;;4940501;29;20220;-78
2021/06/05 14:32:11;;;;;;;0.10;0.10;;;29.00;75.70;;;;;;4958165;29;20765;-79
2021/06/05 14:34:38;;;;;;;0.10;0.10;;;29.00;75.80;;;;;;4957151;29;20205;-79
2021/06/05 14:37:07;;;;;;;0.10;0.10;;;29.00;75.80;;;;;;4956948;29;20237;-78
2021/06/05 14:39:35;;;;;;;0.10;0.10;;;29.10;76.20;;;;;;4951836;28;20201;-74
2021/06/05 14:42:05;;;;;;;0.10;0.10;;;29.20;76.70;;;;;;4955774;28;20240;-78
2021/06/05 14:44:35;;;;;;;0.10;0.10;;;29.10;75.90;;;;;;4954520;28;20584;-77
2021/06/05 14:47:03;;;;;;;0.10;0.10;;;28.90;75.40;;;;;;4939099;29;20225;-77
2021/06/05 14:49:30;;;;;;;0.10;0.10;;;28.50;75.60;;;;;;4951004;29;20260;-77
2021/06/05 14:51:59;;;;;;;0.10;0.10;;;28.50;75.90;;;;;;4939463;29;20222;-77
2021/06/05 14:54:28;;;;;;;0.10;0.10;;;28.50;76.10;;;;;;4934120;29;20206;-76
2021/06/05 14:56:55;;;;;;;0.10;0.10;;;28.50;77.00;;;;;;4935645;29;20225;-77
2021/06/05 14:59:26;;;;;;;0.10;0.10;;;28.00;78.90;;;;;;4934578;29;20212;-77
2021/06/05 15:01:54;;;;;;;0.10;0.10;;;27.60;80.40;;;;;;4935182;29;20765;-77
2021/06/05 15:04:22;;;;;;;0.20;0.20;;;27.30;82.40;;;;;;4935946;29;20209;-78
2021/06/05 15:06:49;;;;;;;0.10;0.10;;;27.10;83.20;;;;;;4935491;29;20259;-79
2021/06/05 15:09:16;;;;;;;0.10;0.10;;;27.10;83.70;;;;;;4935712;29;20289;-76
2021/06/05 15:11:45;;;;;;;0.10;0.10;;;27.00;83.90;;;;;;4935973;29;20900;-78
2021/06/05 15:14:13;;;;;;;0.10;0.10;;;26.90;83.90;;;;;;4935378;29;20202;-78
2021/06/05 15:16:40;;;;;;;0.10;0.10;;;26.70;84.00;;;;;;4935501;29;20269;-76
2021/06/05 15:19:07;;;;;;;0.10;0.10;;;28.10;85.70;;;;;;4936414;29;20205;-78
2021/06/05 15:21:35;;;;;;;0.10;0.10;;;26.60;85.30;;;;;;4939096;29;20646;-77
2021/06/05 15:24:02;;;;;;;0.10;0.10;;;26.40;85.60;;;;;;4942938;29;20197;-77
2021/06/05 15:26:30;;;;;;;0.10;0.10;;;26.30;86.40;;;;;;4946010;29;20218;-76
2021/06/05 15:28:59;;;;;;;0.17;0.17;;;26.20;87.40;;;;;;4950606;29;20256;-77
2021/06/05 15:31:27;;;;;;;0.10;0.10;;;26.10;87.80;;;;;;4951162;29;20222;-76
2021/06/05 15:33:54;;;;;;;0.10;0.10;;;26.00;88.60;;;;;;4943249;29;20301;-74
2021/06/05 15:36:22;;;;;;;0.10;0.10;;;25.80;89.20;;;;;;4945061;29;20201;-77
2021/06/05 15:38:49;;;;;;;0.10;0.10;;;25.60;89.90;;;;;;4943355;29;20233;-76
2021/06/05 15:41:17;;;;;;;0.10;0.10;;;25.50;90.20;;;;;;4942713;29;20269;-74
2021/06/05 15:43:47;;;;;;;0.10;0.10;;;25.50;90.10;;;;;;4936644;29;20289;-74
2021/06/05 15:46:17;;;;;;;0.10;0.10;;;25.30;89.90;;;;;;4937271;29;20214;-76
2021/06/05 15:48:47;;;;;;;0.10;0.10;;;25.30;90.20;;;;;;4936214;29;20212;-78
2021/06/05 15:51:18;;;;;;;0.10;0.10;;;25.10;90.10;;;;;;4935308;29;20225;-77
2021/06/05 15:53:46;;;;;;;0.10;0.10;;;25.10;90.60;;;;;;4936729;29;20210;-77
2021/06/05 15:56:16;;;;;;;0.10;0.10;;;25.00;90.40;;;;;;4938182;29;20202;-77
2021/06/05 15:58:44;;;;;;;0.10;0.10;;;24.80;90.20;;;;;;4949560;29;20245;-77
2021/06/05 16:01:13;;;;;;;0.10;0.10;;;24.80;90.60;;;;;;4936432;29;20222;-77
2021/06/05 16:03:42;;;;;;;0.10;0.10;;;24.70;90.60;;;;;;4952067;29;20205;-77
2021/06/05 16:06:10;;;;;;;0.10;0.10;;;24.70;92.60;;;;;;4947323;29;20221;-77
2021/06/05 16:08:38;;;;;;;0.20;0.20;;;24.60;96.90;;;;;;4953696;29;20675;-78
2021/06/05 16:11:05;;;;;;;0.10;0.10;;;24.20;99.60;;;;;;4956526;28;20233;-77
2021/06/05 16:13:33;;;;;;;0.10;0.10;;;23.90;99.90;;;;;;4956745;29;20663;-78
2021/06/05 16:16:02;;;;;;;0.20;0.20;;;23.60;99.90;;;;;;4942356;29;20215;-78
2021/06/05 16:18:32;;;;;;;0.20;0.20;;;23.20;99.90;;;;;;4945818;29;20240;-76
2021/06/05 16:21:04;;;;;;;0.10;0.10;;;23.10;99.90;;;;;;4940912;29;20284;-74
2021/06/05 16:23:32;;;;;;;0.20;0.20;;;23.00;99.90;;;;;;4938141;29;20257;-79
2021/06/05 16:25:59;;;;;;;0.20;0.20;;;22.90;99.90;;;;;;4939110;29;20218;-77
2021/06/05 16:28:27;;;;;;;0.10;0.10;;;22.90;99.90;;;;;;4954568;23;20222;-77
2021/06/05 16:30:55;;;;;;;0.20;0.20;;;22.80;99.90;;;;;;4921685;29;20203;-79
2021/06/05 16:33:23;;;;;;;0.20;0.20;;;22.80;99.90;;;;;;4921862;29;20210;-78
2021/06/05 16:35:53;;;;;;;0.10;0.10;;;22.70;99.90;;;;;;4919828;29;20245;-76
2021/06/05 16:38:23;;;;;;;0.20;0.20;;;22.60;99.90;;;;;;4919550;29;20223;-77
2021/06/05 16:40:51;;;;;;;0.20;0.20;;;22.60;99.90;;;;;;4920721;29;20282;-77
2021/06/05 16:43:20;;;;;;;0.20;0.20;;;22.60;99.90;;;;;;4921834;29;20218;-78
2021/06/05 16:45:48;;;;;;;0.20;0.20;;;22.60;99.90;;;;;;4920111;29;20230;-77
2021/06/05 16:48:16;;;;;;;0.20;0.20;;;22.60;99.90;;;;;;4914562;29;20239;-78
2021/06/05 16:50:47;;;;;;;0.20;0.20;;;22.60;99.90;;;;;;4909781;29;20254;-77
2021/06/05 16:53:17;;;;;;;0.20;0.20;;;22.60;99.90;;;;;;4913996;29;20202;-77
2021/06/05 16:55:46;;;;;;;0.20;0.20;;;22.60;99.90;;;;;;4920571;29;20220;-77
2021/06/05 16:58:16;;;;;;;0.20;0.20;;;22.60;99.90;;;;;;4920724;29;20234;-77
2021/06/05 17:00:46;;;;;;;0.20;0.20;;;22.60;99.90;;;;;;4916534;29;20203;-78
2021/06/05 17:03:15;;;;;;;0.20;0.20;;;22.60;99.90;;;;;;4916849;29;20270;-77
2021/06/05 17:05:43;;;;;;;0.20;0.20;;;22.60;99.90;;;;;;4916299;29;20203;-79
2021/06/05 17:08:12;;;;;;;0.20;0.20;;;22.60;99.90;;;;;;4930180;29;20735;-76
2021/06/05 17:10:41;;;;;;;0.20;0.20;;;22.70;99.90;;;;;;4928896;29;20743;-79
2021/06/05 17:13:12;;;;;;;0.20;0.20;;;22.60;99.90;;;;;;4923469;29;20272;-77
2021/06/05 17:15:41;;;;;;;0.20;0.20;;;22.60;99.90;;;;;;4920010;29;20246;-78
2021/06/05 17:18:10;;;;;;;0.20;0.20;;;22.70;99.90;;;;;;4923640;29;20231;-78
2021/06/05 17:20:39;;;;;;;0.20;0.20;;;22.70;99.60;;;;;;4928089;29;20214;-78